createdAt,value
2019-01-21T00:04:46.249Z,-4.00
2019-01-21T00:09:38.349Z,-4.10
2019-01-21T00:14:30.812Z,-4.20
2019-01-21T00:19:23.144Z,-4.30
2019-01-21T00:24:15.425Z,-4.30
2019-01-21T00:29:08.017Z,-4.40
2019-01-21T00:34:00.472Z,-4.50
2019-01-21T00:38:53.061Z,-4.50
2019-01-21T00:43:45.209Z,-4.40
2019-01-21T00:48:37.511Z,-4.60
2019-01-21T00:53:29.797Z,-4.60
2019-01-21T00:58:22.081Z,-4.60
2019-01-21T01:03:14.560Z,-4.60
2019-01-21T01:08:07.040Z,-4.50
2019-01-21T01:12:59.569Z,-4.60
2019-01-21T01:17:51.733Z,-4.70
2019-01-21T01:22:44.312Z,-4.80
2019-01-21T01:27:36.436Z,-4.90
2019-01-21T01:32:28.685Z,-4.90
2019-01-21T01:37:20.936Z,-4.90
2019-01-21T01:42:13.360Z,-5.00
2019-01-21T01:47:05.889Z,-5.00
2019-01-21T01:51:57.924Z,-5.00
2019-01-21T01:56:50.484Z,-5.00
2019-01-21T02:01:42.916Z,-5.00
2019-01-21T02:06:35.330Z,-5.10
2019-01-21T02:11:27.587Z,-5.20
2019-01-21T02:16:19.948Z,-5.30
2019-01-21T02:21:12.377Z,-5.40
2019-01-21T02:26:05.904Z,-5.30
2019-01-21T02:31:06.847Z,-5.30
2019-01-21T02:36:36.667Z,-5.40
2019-01-21T02:41:32.201Z,-5.50
2019-01-21T02:46:45.480Z,-5.70
2019-01-21T02:51:49.556Z,-5.80
2019-01-21T02:56:53.704Z,-5.90
2019-01-21T03:01:52.001Z,-5.90
2019-01-21T03:06:52.736Z,-5.90
2019-01-21T03:12:04.869Z,-6.00
2019-01-21T03:17:20.707Z,-6.00
2019-01-21T03:22:31.211Z,-6.10
2019-01-21T03:27:56.176Z,-6.00
2019-01-21T03:33:12.122Z,-6.00
2019-01-21T03:38:15.829Z,-6.10
2019-01-21T03:43:13.764Z,-6.10
2019-01-21T03:48:16.566Z,-6.10
2019-01-21T03:53:20.161Z,-6.10
2019-01-21T03:58:18.362Z,-6.10
2019-01-21T04:03:28.306Z,-6.00
2019-01-21T04:08:56.243Z,-6.10
2019-01-21T04:14:14.000Z,-6.20
2019-01-21T04:19:18.118Z,-6.30
2019-01-21T04:24:28.434Z,-6.40
2019-01-21T04:29:38.350Z,-6.50
2019-01-21T04:34:51.889Z,-6.50
2019-01-21T04:39:53.077Z,-6.50
2019-01-21T04:44:57.641Z,-6.40
2019-01-21T04:50:07.801Z,-6.50
2019-01-21T04:55:09.172Z,-6.60
2019-01-21T05:00:04.506Z,-6.60
2019-01-21T05:05:05.698Z,-6.70
2019-01-21T05:10:09.485Z,-6.70
2019-01-21T05:15:04.614Z,-6.70
2019-01-21T05:20:17.881Z,-6.70
2019-01-21T05:25:32.124Z,-6.70
2019-01-21T05:30:30.455Z,-6.80
2019-01-21T05:35:42.821Z,-6.80
2019-01-21T05:40:50.053Z,-6.80
2019-01-21T05:46:16.491Z,-6.80
2019-01-21T05:51:34.180Z,-6.90
2019-01-21T05:56:51.716Z,-6.90
2019-01-21T06:02:19.999Z,-6.90
2019-01-21T06:07:28.433Z,-7.00
2019-01-21T06:12:35.113Z,-7.00
2019-01-21T06:17:48.125Z,-7.00
2019-01-21T06:22:48.958Z,-7.00
2019-01-21T06:27:53.225Z,-7.00
2019-01-21T06:32:48.389Z,-7.10
2019-01-21T06:37:46.133Z,-7.10
2019-01-21T06:42:57.700Z,-7.10
2019-01-21T06:48:22.633Z,-7.10
2019-01-21T06:53:32.806Z,-7.20
2019-01-21T06:58:59.116Z,-7.20
2019-01-21T07:03:56.782Z,-7.20
2019-01-21T07:08:52.032Z,-7.20
2019-01-21T07:14:15.568Z,-7.20
2019-01-21T07:19:13.549Z,-7.30
2019-01-21T07:24:17.750Z,-7.30
2019-01-21T07:29:31.932Z,-7.30
2019-01-21T07:34:30.024Z,-7.30
2019-01-21T07:39:33.949Z,-7.30
2019-01-21T07:44:43.624Z,-7.20
2019-01-21T07:49:53.641Z,-7.20
2019-01-21T07:54:48.956Z,-7.10
2019-01-21T07:59:56.162Z,-7.10
2019-01-21T08:04:54.044Z,-7.00
2019-01-21T08:10:05.562Z,-7.00
2019-01-21T08:15:03.369Z,-6.90
2019-01-21T08:20:22.474Z,-6.70
2019-01-21T08:25:26.660Z,-6.60
2019-01-21T08:30:27.173Z,-6.50
2019-01-21T08:35:31.524Z,-6.40
2019-01-21T08:40:35.197Z,-6.20
2019-01-21T08:45:36.613Z,-5.90
2019-01-21T08:50:55.769Z,-5.70
2019-01-21T08:55:50.919Z,-5.40
2019-01-21T09:00:54.601Z,-5.20
2019-01-21T09:05:52.914Z,-5.00
2019-01-21T09:10:59.517Z,-4.80
2019-01-21T09:15:57.881Z,-4.50
2019-01-21T09:21:20.246Z,-4.30
2019-01-21T09:26:31.129Z,-4.00
2019-01-21T09:31:32.157Z,-3.80
2019-01-21T09:36:45.569Z,-3.60
2019-01-21T09:41:43.674Z,-3.40
2019-01-21T09:46:43.754Z,-3.40
2019-01-21T09:51:37.705Z,-3.30
2019-01-21T09:56:31.386Z,-3.20
2019-01-21T10:01:25.133Z,-3.20
2019-01-21T10:06:20.605Z,-3.20
2019-01-21T10:11:46.356Z,-3.10
2019-01-21T10:16:44.408Z,-3.20
2019-01-21T10:21:56.244Z,-3.10
2019-01-21T10:27:12.283Z,-3.00
2019-01-21T10:32:29.270Z,-2.70
2019-01-21T10:37:25.076Z,-2.60
2019-01-21T10:42:41.801Z,-2.50
2019-01-21T10:47:37.325Z,-2.60
2019-01-21T10:52:52.570Z,-2.40
2019-01-21T10:57:50.453Z,-2.30
2019-01-21T11:02:58.137Z,-2.20
2019-01-21T11:08:02.757Z,-2.10
2019-01-21T11:13:10.300Z,-2.00
2019-01-21T11:18:17.685Z,-1.70
2019-01-21T11:23:13.145Z,-1.50
2019-01-21T11:28:17.673Z,-1.40
2019-01-21T11:33:42.124Z,-1.30
2019-01-21T11:38:37.718Z,-1.30
2019-01-21T11:43:44.957Z,-1.20
2019-01-21T11:48:49.649Z,-0.90
2019-01-21T11:53:54.351Z,-0.40
2019-01-21T11:58:58.585Z,0.10
2019-01-21T12:04:03.265Z,0.10
2019-01-21T12:09:01.510Z,0.20
2019-01-21T12:14:20.033Z,0.60
2019-01-21T12:19:41.219Z,0.50
2019-01-21T12:24:34.870Z,0.50
2019-01-21T12:29:46.509Z,0.40
2019-01-21T12:34:45.231Z,0.60
2019-01-21T12:39:49.553Z,0.90
2019-01-21T12:45:09.710Z,0.90
2019-01-21T12:50:24.150Z,0.90
2019-01-21T12:55:22.201Z,0.90
2019-01-21T13:00:35.450Z,0.70
2019-01-21T13:05:57.368Z,0.20
2019-01-21T13:11:01.648Z,0.00
2019-01-21T13:16:15.339Z,0.10
2019-01-21T13:21:34.589Z,-0.10
2019-01-21T13:26:40.647Z,-0.30
2019-01-21T13:31:54.373Z,-0.30
2019-01-21T13:36:52.415Z,-0.20
2019-01-21T13:41:50.832Z,-0.30
2019-01-21T13:47:07.703Z,-0.50
2019-01-21T13:52:08.982Z,-0.50
2019-01-21T13:57:16.503Z,-0.60
2019-01-21T14:02:14.832Z,-0.70
2019-01-21T14:07:25.101Z,-0.80
2019-01-21T14:12:39.124Z,-0.80
2019-01-21T14:17:37.125Z,-0.70
2019-01-21T14:22:41.290Z,-0.70
2019-01-21T14:27:42.668Z,-0.80
2019-01-21T14:32:38.050Z,-0.90
2019-01-21T14:37:51.538Z,-0.90
2019-01-21T14:42:49.760Z,-1.00
2019-01-21T14:48:07.817Z,-1.00
2019-01-21T14:53:18.330Z,-1.00
2019-01-21T14:58:13.765Z,-1.00
2019-01-21T15:03:14.695Z,-1.00
2019-01-21T15:08:10.293Z,-1.00
2019-01-21T15:13:23.982Z,-1.10
2019-01-21T15:18:33.980Z,-1.20
2019-01-21T15:23:41.612Z,-1.30
2019-01-21T15:28:39.846Z,-1.30
2019-01-21T15:33:59.007Z,-1.30
2019-01-21T15:39:15.517Z,-1.30
2019-01-21T15:44:38.148Z,-1.40
2019-01-21T15:49:43.995Z,-1.50
2019-01-21T15:54:55.636Z,-1.60
2019-01-21T16:00:07.913Z,-1.70
2019-01-21T16:05:12.392Z,-1.80
2019-01-21T16:10:24.770Z,-1.90
2019-01-21T16:15:20.653Z,-2.00
2019-01-21T16:20:16.056Z,-2.10
2019-01-21T16:25:14.266Z,-2.20
2019-01-21T16:30:27.527Z,-2.40
2019-01-21T16:35:25.925Z,-2.50
2019-01-21T16:40:41.004Z,-2.60
2019-01-21T16:45:33.688Z,-2.70
2019-01-21T16:50:26.460Z,-2.80
2019-01-21T16:55:19.177Z,-2.90
2019-01-21T17:00:13.809Z,-3.00
2019-01-21T17:05:09.112Z,-3.10
2019-01-21T17:10:01.837Z,-3.20
2019-01-21T17:14:57.649Z,-3.30
2019-01-21T17:19:48.718Z,-3.40
2019-01-21T17:24:41.080Z,-3.50
2019-01-21T17:29:33.672Z,-3.60
2019-01-21T17:34:26.457Z,-3.60
2019-01-21T17:39:19.081Z,-3.70
2019-01-21T17:44:11.856Z,-3.80
2019-01-21T17:49:04.901Z,-3.80
2019-01-21T17:53:57.689Z,-3.80
2019-01-21T17:58:50.206Z,-3.90
2019-01-21T18:03:42.696Z,-4.00
2019-01-21T18:08:35.562Z,-4.10
2019-01-21T18:13:28.020Z,-4.20
2019-01-21T18:18:20.341Z,-4.30
2019-01-21T18:23:12.582Z,-4.30
2019-01-21T18:28:05.037Z,-4.40
2019-01-21T18:32:57.481Z,-4.50
2019-01-21T18:37:50.102Z,-4.50
2019-01-21T18:42:42.807Z,-4.50
2019-01-21T18:47:35.496Z,-4.60
2019-01-21T18:52:28.050Z,-4.70
2019-01-21T18:57:20.669Z,-4.80
2019-01-21T19:02:13.332Z,-4.80
2019-01-21T19:07:05.716Z,-4.90
2019-01-21T19:11:58.356Z,-5.00
2019-01-21T19:16:51.216Z,-5.10
2019-01-21T19:21:43.904Z,-5.10
2019-01-21T19:26:36.165Z,-5.10
2019-01-21T19:31:28.805Z,-5.20
2019-01-21T19:36:21.463Z,-5.20
2019-01-21T19:41:13.603Z,-5.30
2019-01-21T19:46:05.970Z,-5.30
2019-01-21T19:50:58.422Z,-5.30
2019-01-21T19:55:50.898Z,-5.40
2019-01-21T20:00:43.269Z,-5.50
2019-01-21T20:05:35.905Z,-5.50
2019-01-21T20:10:28.771Z,-5.50
2019-01-21T20:15:21.165Z,-5.50
2019-01-21T20:20:16.794Z,-5.60
2019-01-21T20:25:11.299Z,-5.70
2019-01-21T20:30:04.962Z,-5.70
2019-01-21T20:34:57.236Z,-5.70
2019-01-21T20:39:49.982Z,-5.80
2019-01-21T20:44:42.420Z,-5.80
2019-01-21T20:49:34.822Z,-5.80
2019-01-21T20:54:27.964Z,-5.90
2019-01-21T20:59:20.523Z,-6.00
2019-01-21T21:04:13.161Z,-6.10
2019-01-21T21:09:08.249Z,-6.10
2019-01-21T21:14:00.735Z,-6.20
2019-01-21T21:18:53.222Z,-6.30
2019-01-21T21:23:45.879Z,-6.30
2019-01-21T21:28:38.983Z,-6.30
2019-01-21T21:33:31.338Z,-6.30
2019-01-21T21:38:23.804Z,-6.30
2019-01-21T21:43:16.757Z,-6.30
2019-01-21T21:48:09.029Z,-6.40
2019-01-21T21:53:01.663Z,-6.50
2019-01-21T21:57:54.300Z,-6.50
2019-01-21T22:02:46.981Z,-6.60
2019-01-21T22:07:39.441Z,-6.60
2019-01-21T22:12:32.018Z,-6.60
2019-01-21T22:17:24.349Z,-6.60
2019-01-21T22:22:16.607Z,-6.60
2019-01-21T22:27:09.140Z,-6.60
2019-01-21T22:32:01.692Z,-6.60
2019-01-21T22:36:54.206Z,-6.60
2019-01-21T22:41:46.912Z,-6.70
2019-01-21T22:46:39.698Z,-6.80
2019-01-21T22:51:32.180Z,-6.90
2019-01-21T22:56:24.620Z,-6.90
2019-01-21T23:01:20.859Z,-6.80
2019-01-21T23:06:13.536Z,-6.90
2019-01-21T23:11:05.977Z,-6.90
2019-01-21T23:15:58.630Z,-6.90
2019-01-21T23:20:51.096Z,-7.00
2019-01-21T23:25:43.993Z,-7.10
2019-01-21T23:30:36.257Z,-7.20
2019-01-21T23:35:28.956Z,-7.30
2019-01-21T23:40:21.472Z,-7.30
2019-01-21T23:45:14.251Z,-7.40
2019-01-21T23:50:09.569Z,-7.40
2019-01-21T23:55:02.472Z,-7.40
2019-01-21T23:59:55.145Z,-7.40
